sensor_id;sensor_type;location;lat;lon;timestamp;P1;durP1;ratioP1;P2;durP2;ratioP2
68872;SDS011;55907;50.806;12.882;2024-01-07T00:02:37;77.0;;;17.4;;
68872;SDS011;55907;50.806;12.882;2024-01-07T00:05:38;62.6;;;18.7;;
68872;SDS011;55907;50.806;12.882;2024-01-07T00:08:39;55.5;;;18.4;;
68872;SDS011;55907;50.806;12.882;2024-01-07T00:11:40;46.5;;;16.5;;
68872;SDS011;55907;50.806;12.882;2024-01-07T00:14:41;101.8;;;20.2;;
68872;SDS011;55907;50.806;12.882;2024-01-07T00:17:41;48.5;;;18.9;;
68872;SDS011;55907;50.806;12.882;2024-01-07T00:20:42;39.8;;;17.0;;
68872;SDS011;55907;50.806;12.882;2024-01-07T00:23:43;64.5;;;20.0;;
68872;SDS011;55907;50.806;12.882;2024-01-07T00:26:44;45.9;;;18.4;;
68872;SDS011;55907;50.806;12.882;2024-01-07T00:29:45;38.5;;;18.3;;
68872;SDS011;55907;50.806;12.882;2024-01-07T00:32:46;53.2;;;18.5;;
68872;SDS011;55907;50.806;12.882;2024-01-07T00:35:46;46.1;;;17.1;;
68872;SDS011;55907;50.806;12.882;2024-01-07T00:38:47;35.9;;;17.6;;
68872;SDS011;55907;50.806;12.882;2024-01-07T00:41:48;35.0;;;17.7;;
68872;SDS011;55907;50.806;12.882;2024-01-07T00:44:49;30.6;;;16.4;;
68872;SDS011;55907;50.806;12.882;2024-01-07T00:47:50;27.3;;;16.1;;
68872;SDS011;55907;50.806;12.882;2024-01-07T00:50:51;23.4;;;14.4;;
68872;SDS011;55907;50.806;12.882;2024-01-07T00:53:51;26.2;;;15.6;;
68872;SDS011;55907;50.806;12.882;2024-01-07T00:56:52;24.1;;;15.5;;
68872;SDS011;55907;50.806;12.882;2024-01-07T00:59:53;22.7;;;13.7;;
68872;SDS011;55907;50.806;12.882;2024-01-07T01:02:54;22.6;;;14.7;;
68872;SDS011;55907;50.806;12.882;2024-01-07T01:05:55;19.8;;;13.4;;
68872;SDS011;55907;50.806;12.882;2024-01-07T01:08:56;20.0;;;12.5;;
68872;SDS011;55907;50.806;12.882;2024-01-07T01:11:57;18.3;;;12.9;;
68872;SDS011;55907;50.806;12.882;2024-01-07T01:14:57;19.3;;;12.8;;
68872;SDS011;55907;50.806;12.882;2024-01-07T01:17:58;18.0;;;11.9;;
68872;SDS011;55907;50.806;12.882;2024-01-07T01:20:59;19.2;;;12.8;;
68872;SDS011;55907;50.806;12.882;2024-01-07T01:24:00;19.0;;;13.4;;
68872;SDS011;55907;50.806;12.882;2024-01-07T01:27:01;19.6;;;13.6;;
68872;SDS011;55907;50.806;12.882;2024-01-07T01:30:02;20.7;;;13.6;;
68872;SDS011;55907;50.806;12.882;2024-01-07T01:33:02;24.5;;;15.7;;
68872;SDS011;55907;50.806;12.882;2024-01-07T01:36:05;24.1;;;15.7;;
68872;SDS011;55907;50.806;12.882;2024-01-07T01:39:04;26.3;;;15.8;;
68872;SDS011;55907;50.806;12.882;2024-01-07T01:42:05;28.2;;;18.1;;
68872;SDS011;55907;50.806;12.882;2024-01-07T01:45:06;29.7;;;16.8;;
68872;SDS011;55907;50.806;12.882;2024-01-07T01:48:07;31.8;;;19.0;;
68872;SDS011;55907;50.806;12.882;2024-01-07T01:51:07;33.8;;;19.1;;
68872;SDS011;55907;50.806;12.882;2024-01-07T01:54:08;33.2;;;19.5;;
68872;SDS011;55907;50.806;12.882;2024-01-07T01:57:09;33.4;;;19.1;;
68872;SDS011;55907;50.806;12.882;2024-01-07T02:00:10;43.2;;;19.4;;
68872;SDS011;55907;50.806;12.882;2024-01-07T02:03:11;33.0;;;20.0;;
68872;SDS011;55907;50.806;12.882;2024-01-07T02:06:12;35.5;;;19.2;;
68872;SDS011;55907;50.806;12.882;2024-01-07T02:09:12;38.9;;;21.3;;
68872;SDS011;55907;50.806;12.882;2024-01-07T02:12:13;41.1;;;20.8;;
68872;SDS011;55907;50.806;12.882;2024-01-07T02:15:14;38.7;;;20.5;;
68872;SDS011;55907;50.806;12.882;2024-01-07T02:18:15;33.6;;;19.9;;
68872;SDS011;55907;50.806;12.882;2024-01-07T02:21:16;31.8;;;18.2;;
68872;SDS011;55907;50.806;12.882;2024-01-07T02:24:17;29.0;;;17.2;;
68872;SDS011;55907;50.806;12.882;2024-01-07T02:27:17;31.4;;;18.7;;
68872;SDS011;55907;50.806;12.882;2024-01-07T02:30:18;29.6;;;17.9;;
68872;SDS011;55907;50.806;12.882;2024-01-07T02:33:19;27.0;;;16.0;;
68872;SDS011;55907;50.806;12.882;2024-01-07T02:36:20;28.9;;;16.5;;
68872;SDS011;55907;50.806;12.882;2024-01-07T02:39:21;27.9;;;15.8;;
68872;SDS011;55907;50.806;12.882;2024-01-07T02:42:22;25.1;;;16.2;;
68872;SDS011;55907;50.806;12.882;2024-01-07T02:45:22;25.8;;;16.7;;
68872;SDS011;55907;50.806;12.882;2024-01-07T02:48:23;26.0;;;16.5;;
68872;SDS011;55907;50.806;12.882;2024-01-07T02:51:24;28.7;;;16.7;;
68872;SDS011;55907;50.806;12.882;2024-01-07T02:54:25;28.8;;;17.8;;
68872;SDS011;55907;50.806;12.882;2024-01-07T02:57:26;27.4;;;16.5;;
68872;SDS011;55907;50.806;12.882;2024-01-07T03:00:26;27.1;;;17.1;;
68872;SDS011;55907;50.806;12.882;2024-01-07T03:03:27;28.5;;;17.3;;
68872;SDS011;55907;50.806;12.882;2024-01-07T03:06:28;26.7;;;16.3;;
68872;SDS011;55907;50.806;12.882;2024-01-07T03:09:29;25.9;;;15.7;;
68872;SDS011;55907;50.806;12.882;2024-01-07T03:12:30;26.5;;;15.7;;
68872;SDS011;55907;50.806;12.882;2024-01-07T03:15:31;31.5;;;16.5;;
68872;SDS011;55907;50.806;12.882;2024-01-07T03:18:31;28.2;;;16.8;;
68872;SDS011;55907;50.806;12.882;2024-01-07T03:21:32;29.2;;;16.7;;
68872;SDS011;55907;50.806;12.882;2024-01-07T03:24:33;28.4;;;16.8;;
68872;SDS011;55907;50.806;12.882;2024-01-07T03:27:34;27.7;;;17.2;;
68872;SDS011;55907;50.806;12.882;2024-01-07T03:30:35;33.0;;;18.1;;
68872;SDS011;55907;50.806;12.882;2024-01-07T03:33:36;29.6;;;17.4;;
68872;SDS011;55907;50.806;12.882;2024-01-07T03:36:37;30.7;;;17.1;;
68872;SDS011;55907;50.806;12.882;2024-01-07T03:39:37;27.3;;;16.5;;
68872;SDS011;55907;50.806;12.882;2024-01-07T03:42:38;27.9;;;17.2;;
68872;SDS011;55907;50.806;12.882;2024-01-07T03:45:39;30.0;;;18.0;;
68872;SDS011;55907;50.806;12.882;2024-01-07T03:48:40;31.8;;;17.1;;
68872;SDS011;55907;50.806;12.882;2024-01-07T03:51:41;32.6;;;18.0;;
68872;SDS011;55907;50.806;12.882;2024-01-07T03:54:41;29.8;;;18.1;;
68872;SDS011;55907;50.806;12.882;2024-01-07T03:57:42;25.5;;;16.2;;
68872;SDS011;55907;50.806;12.882;2024-01-07T04:00:43;31.3;;;17.4;;
68872;SDS011;55907;50.806;12.882;2024-01-07T04:03:44;29.0;;;15.7;;
68872;SDS011;55907;50.806;12.882;2024-01-07T04:06:45;29.9;;;17.8;;
68872;SDS011;55907;50.806;12.882;2024-01-07T04:09:46;28.3;;;17.8;;
68872;SDS011;55907;50.806;12.882;2024-01-07T04:12:46;30.0;;;16.8;;
68872;SDS011;55907;50.806;12.882;2024-01-07T04:15:47;26.9;;;17.1;;
68872;SDS011;55907;50.806;12.882;2024-01-07T04:18:48;30.7;;;18.1;;
68872;SDS011;55907;50.806;12.882;2024-01-07T04:21:49;30.2;;;18.4;;
68872;SDS011;55907;50.806;12.882;2024-01-07T04:24:50;32.3;;;18.0;;
68872;SDS011;55907;50.806;12.882;2024-01-07T04:27:51;31.1;;;17.8;;
68872;SDS011;55907;50.806;12.882;2024-01-07T04:30:51;30.0;;;18.0;;
68872;SDS011;55907;50.806;12.882;2024-01-07T04:33:52;25.3;;;15.9;;
68872;SDS011;55907;50.806;12.882;2024-01-07T04:36:53;29.6;;;16.9;;
68872;SDS011;55907;50.806;12.882;2024-01-07T04:39:54;24.7;;;15.2;;
68872;SDS011;55907;50.806;12.882;2024-01-07T04:42:55;27.7;;;15.5;;
68872;SDS011;55907;50.806;12.882;2024-01-07T04:45:55;27.3;;;15.2;;
68872;SDS011;55907;50.806;12.882;2024-01-07T04:48:56;30.3;;;16.5;;
68872;SDS011;55907;50.806;12.882;2024-01-07T04:51:57;28.9;;;16.9;;
68872;SDS011;55907;50.806;12.882;2024-01-07T04:54:58;30.1;;;17.3;;
68872;SDS011;55907;50.806;12.882;2024-01-07T04:57:59;27.3;;;15.8;;
68872;SDS011;55907;50.806;12.882;2024-01-07T05:01:00;28.9;;;16.7;;
68872;SDS011;55907;50.806;12.882;2024-01-07T05:04:01;30.0;;;16.4;;
68872;SDS011;55907;50.806;12.882;2024-01-07T05:07:02;30.7;;;17.2;;
68872;SDS011;55907;50.806;12.882;2024-01-07T05:10:03;27.9;;;15.4;;
68872;SDS011;55907;50.806;12.882;2024-01-07T05:13:03;27.7;;;14.7;;
68872;SDS011;55907;50.806;12.882;2024-01-07T05:16:04;24.2;;;14.9;;
68872;SDS011;55907;50.806;12.882;2024-01-07T05:19:05;23.7;;;14.6;;
68872;SDS011;55907;50.806;12.882;2024-01-07T05:22:06;26.0;;;15.2;;
68872;SDS011;55907;50.806;12.882;2024-01-07T05:25:06;21.3;;;14.2;;
68872;SDS011;55907;50.806;12.882;2024-01-07T05:28:07;22.9;;;14.0;;
68872;SDS011;55907;50.806;12.882;2024-01-07T05:31:14;22.2;;;13.2;;
68872;SDS011;55907;50.806;12.882;2024-01-07T05:34:09;22.0;;;13.0;;
68872;SDS011;55907;50.806;12.882;2024-01-07T05:37:10;24.1;;;14.2;;
68872;SDS011;55907;50.806;12.882;2024-01-07T05:40:11;22.2;;;13.7;;
68872;SDS011;55907;50.806;12.882;2024-01-07T05:43:11;21.9;;;12.9;;
68872;SDS011;55907;50.806;12.882;2024-01-07T05:46:12;19.2;;;12.0;;
68872;SDS011;55907;50.806;12.882;2024-01-07T05:49:13;20.0;;;12.9;;
68872;SDS011;55907;50.806;12.882;2024-01-07T05:52:14;22.3;;;13.8;;
68872;SDS011;55907;50.806;12.882;2024-01-07T05:55:15;22.0;;;12.8;;
68872;SDS011;55907;50.806;12.882;2024-01-07T05:58:16;20.2;;;13.3;;
68872;SDS011;55907;50.806;12.882;2024-01-07T06:01:18;18.2;;;11.7;;
68872;SDS011;55907;50.806;12.882;2024-01-07T06:04:17;22.2;;;13.4;;
68872;SDS011;55907;50.806;12.882;2024-01-07T06:07:18;18.0;;;12.2;;
68872;SDS011;55907;50.806;12.882;2024-01-07T06:10:21;17.4;;;11.2;;
68872;SDS011;55907;50.806;12.882;2024-01-07T06:13:20;17.0;;;11.1;;
68872;SDS011;55907;50.806;12.882;2024-01-07T06:16:21;15.8;;;10.0;;
68872;SDS011;55907;50.806;12.882;2024-01-07T06:19:21;16.9;;;11.5;;
68872;SDS011;55907;50.806;12.882;2024-01-07T06:22:22;20.3;;;11.9;;
68872;SDS011;55907;50.806;12.882;2024-01-07T06:25:23;19.0;;;10.8;;
68872;SDS011;55907;50.806;12.882;2024-01-07T06:28:24;17.5;;;11.2;;
68872;SDS011;55907;50.806;12.882;2024-01-07T06:31:25;16.6;;;10.9;;
68872;SDS011;55907;50.806;12.882;2024-01-07T06:34:26;14.5;;;10.3;;
68872;SDS011;55907;50.806;12.882;2024-01-07T06:37:27;17.4;;;10.8;;
68872;SDS011;55907;50.806;12.882;2024-01-07T06:40:27;18.8;;;11.6;;
68872;SDS011;55907;50.806;12.882;2024-01-07T06:43:28;16.9;;;10.3;;
68872;SDS011;55907;50.806;12.882;2024-01-07T06:46:29;18.0;;;11.0;;
68872;SDS011;55907;50.806;12.882;2024-01-07T06:49:30;21.7;;;12.9;;
68872;SDS011;55907;50.806;12.882;2024-01-07T06:52:31;14.8;;;9.0;;
68872;SDS011;55907;50.806;12.882;2024-01-07T06:55:31;18.2;;;10.3;;
68872;SDS011;55907;50.806;12.882;2024-01-07T06:58:32;19.6;;;10.1;;
68872;SDS011;55907;50.806;12.882;2024-01-07T07:01:33;15.0;;;8.7;;
68872;SDS011;55907;50.806;12.882;2024-01-07T07:04:34;15.1;;;10.3;;
68872;SDS011;55907;50.806;12.882;2024-01-07T07:07:35;16.9;;;10.0;;
68872;SDS011;55907;50.806;12.882;2024-01-07T07:10:36;16.2;;;10.2;;
68872;SDS011;55907;50.806;12.882;2024-01-07T07:13:37;13.0;;;9.1;;
68872;SDS011;55907;50.806;12.882;2024-01-07T07:16:37;11.9;;;8.4;;
68872;SDS011;55907;50.806;12.882;2024-01-07T07:19:38;13.7;;;9.0;;
68872;SDS011;55907;50.806;12.882;2024-01-07T07:22:39;10.1;;;8.0;;
68872;SDS011;55907;50.806;12.882;2024-01-07T07:25:40;11.9;;;9.0;;
68872;SDS011;55907;50.806;12.882;2024-01-07T07:28:42;13.3;;;9.2;;
68872;SDS011;55907;50.806;12.882;2024-01-07T07:31:42;10.9;;;7.7;;
68872;SDS011;55907;50.806;12.882;2024-01-07T07:34:42;11.6;;;8.8;;
68872;SDS011;55907;50.806;12.882;2024-01-07T07:37:43;13.9;;;10.0;;
68872;SDS011;55907;50.806;12.882;2024-01-07T07:40:44;15.0;;;9.7;;
68872;SDS011;55907;50.806;12.882;2024-01-07T07:43:45;13.4;;;8.7;;
68872;SDS011;55907;50.806;12.882;2024-01-07T07:46:46;10.3;;;7.7;;
68872;SDS011;55907;50.806;12.882;2024-01-07T07:49:47;9.8;;;8.3;;
68872;SDS011;55907;50.806;12.882;2024-01-07T07:52:47;12.9;;;8.6;;
68872;SDS011;55907;50.806;12.882;2024-01-07T07:55:48;10.6;;;8.3;;
68872;SDS011;55907;50.806;12.882;2024-01-07T07:58:49;9.7;;;8.3;;
68872;SDS011;55907;50.806;12.882;2024-01-07T08:01:50;8.9;;;7.0;;
68872;SDS011;55907;50.806;12.882;2024-01-07T08:04:51;9.3;;;7.3;;
68872;SDS011;55907;50.806;12.882;2024-01-07T08:07:52;9.8;;;7.5;;
68872;SDS011;55907;50.806;12.882;2024-01-07T08:10:52;9.1;;;7.3;;
68872;SDS011;55907;50.806;12.882;2024-01-07T08:13:54;9.6;;;7.7;;
68872;SDS011;55907;50.806;12.882;2024-01-07T08:16:54;10.9;;;7.1;;
68872;SDS011;55907;50.806;12.882;2024-01-07T08:19:55;10.5;;;6.3;;
68872;SDS011;55907;50.806;12.882;2024-01-07T08:22:56;9.1;;;6.6;;
68872;SDS011;55907;50.806;12.882;2024-01-07T08:25:56;10.1;;;7.3;;
68872;SDS011;55907;50.806;12.882;2024-01-07T08:28:57;6.7;;;6.0;;
68872;SDS011;55907;50.806;12.882;2024-01-07T08:31:58;8.3;;;6.4;;
68872;SDS011;55907;50.806;12.882;2024-01-07T08:34:59;8.2;;;7.1;;
68872;SDS011;55907;50.806;12.882;2024-01-07T08:38:00;7.6;;;6.8;;
68872;SDS011;55907;50.806;12.882;2024-01-07T08:41:01;6.8;;;6.1;;
68872;SDS011;55907;50.806;12.882;2024-01-07T08:47:03;6.9;;;6.1;;
68872;SDS011;55907;50.806;12.882;2024-01-07T08:50:03;7.4;;;6.6;;
68872;SDS011;55907;50.806;12.882;2024-01-07T08:53:04;9.9;;;8.5;;
68872;SDS011;55907;50.806;12.882;2024-01-07T08:56:05;6.7;;;6.0;;
68872;SDS011;55907;50.806;12.882;2024-01-07T08:59:06;7.9;;;5.9;;
68872;SDS011;55907;50.806;12.882;2024-01-07T09:02:06;7.7;;;5.9;;
68872;SDS011;55907;50.806;12.882;2024-01-07T09:05:07;9.0;;;6.7;;
68872;SDS011;55907;50.806;12.882;2024-01-07T09:08:08;6.2;;;5.5;;
68872;SDS011;55907;50.806;12.882;2024-01-07T09:11:09;5.9;;;5.4;;
68872;SDS011;55907;50.806;12.882;2024-01-07T09:14:10;5.4;;;4.9;;
68872;SDS011;55907;50.806;12.882;2024-01-07T09:17:11;6.8;;;5.1;;
68872;SDS011;55907;50.806;12.882;2024-01-07T09:20:12;5.9;;;5.4;;
68872;SDS011;55907;50.806;12.882;2024-01-07T09:23:12;7.2;;;5.5;;
68872;SDS011;55907;50.806;12.882;2024-01-07T09:26:13;5.4;;;4.9;;
68872;SDS011;55907;50.806;12.882;2024-01-07T09:29:14;7.8;;;5.4;;
68872;SDS011;55907;50.806;12.882;2024-01-07T09:32:18;4.6;;;4.2;;
68872;SDS011;55907;50.806;12.882;2024-01-07T09:35:16;5.2;;;4.7;;
68872;SDS011;55907;50.806;12.882;2024-01-07T09:38:16;5.3;;;4.7;;
68872;SDS011;55907;50.806;12.882;2024-01-07T09:44:18;5.2;;;4.7;;
68872;SDS011;55907;50.806;12.882;2024-01-07T09:47:19;5.0;;;4.4;;
68872;SDS011;55907;50.806;12.882;2024-01-07T09:50:20;5.5;;;5.1;;
68872;SDS011;55907;50.806;12.882;2024-01-07T09:53:21;4.9;;;4.5;;
68872;SDS011;55907;50.806;12.882;2024-01-07T09:56:23;4.5;;;4.1;;
68872;SDS011;55907;50.806;12.882;2024-01-07T09:59:22;5.0;;;4.6;;
68872;SDS011;55907;50.806;12.882;2024-01-07T10:02:23;4.4;;;4.1;;
68872;SDS011;55907;50.806;12.882;2024-01-07T10:05:24;4.9;;;4.1;;
68872;SDS011;55907;50.806;12.882;2024-01-07T10:08:25;4.4;;;4.0;;
68872;SDS011;55907;50.806;12.882;2024-01-07T10:11:26;3.8;;;3.6;;
68872;SDS011;55907;50.806;12.882;2024-01-07T10:14:27;3.9;;;3.6;;
68872;SDS011;55907;50.806;12.882;2024-01-07T10:17:27;3.7;;;3.3;;
68872;SDS011;55907;50.806;12.882;2024-01-07T10:20:28;3.9;;;3.6;;
68872;SDS011;55907;50.806;12.882;2024-01-07T10:23:29;4.2;;;3.8;;
68872;SDS011;55907;50.806;12.882;2024-01-07T10:26:30;3.9;;;3.6;;
68872;SDS011;55907;50.806;12.882;2024-01-07T10:29:31;4.2;;;3.9;;
68872;SDS011;55907;50.806;12.882;2024-01-07T10:32:32;3.1;;;2.9;;
68872;SDS011;55907;50.806;12.882;2024-01-07T10:35:33;3.6;;;3.3;;
68872;SDS011;55907;50.806;12.882;2024-01-07T10:38:33;3.0;;;2.8;;
68872;SDS011;55907;50.806;12.882;2024-01-07T10:41:34;3.6;;;3.1;;
68872;SDS011;55907;50.806;12.882;2024-01-07T10:44:35;3.9;;;3.6;;
68872;SDS011;55907;50.806;12.882;2024-01-07T10:47:36;3.5;;;3.2;;
68872;SDS011;55907;50.806;12.882;2024-01-07T10:50:36;3.8;;;3.5;;
68872;SDS011;55907;50.806;12.882;2024-01-07T10:53:37;3.2;;;3.0;;
68872;SDS011;55907;50.806;12.882;2024-01-07T10:56:38;3.3;;;3.1;;
68872;SDS011;55907;50.806;12.882;2024-01-07T10:59:39;3.4;;;3.2;;
68872;SDS011;55907;50.806;12.882;2024-01-07T11:02:40;3.6;;;3.3;;
68872;SDS011;55907;50.806;12.882;2024-01-07T11:08:43;3.5;;;3.2;;
68872;SDS011;55907;50.806;12.882;2024-01-07T11:11:42;4.8;;;4.1;;
68872;SDS011;55907;50.806;12.882;2024-01-07T11:14:43;3.5;;;3.2;;
68872;SDS011;55907;50.806;12.882;2024-01-07T11:17:44;2.8;;;2.6;;
68872;SDS011;55907;50.806;12.882;2024-01-07T11:20:45;2.5;;;2.3;;
68872;SDS011;55907;50.806;12.882;2024-01-07T11:23:45;3.2;;;3.0;;
68872;SDS011;55907;50.806;12.882;2024-01-07T11:26:46;2.5;;;2.4;;
68872;SDS011;55907;50.806;12.882;2024-01-07T11:29:52;3.2;;;3.0;;
68872;SDS011;55907;50.806;12.882;2024-01-07T11:32:48;2.9;;;2.7;;
68872;SDS011;55907;50.806;12.882;2024-01-07T11:35:56;3.3;;;3.1;;
68872;SDS011;55907;50.806;12.882;2024-01-07T11:38:49;2.9;;;2.6;;
68872;SDS011;55907;50.806;12.882;2024-01-07T11:41:50;3.3;;;3.1;;
68872;SDS011;55907;50.806;12.882;2024-01-07T11:44:51;2.7;;;2.5;;
68872;SDS011;55907;50.806;12.882;2024-01-07T11:47:52;2.5;;;2.4;;
68872;SDS011;55907;50.806;12.882;2024-01-07T11:50:53;3.2;;;2.9;;
68872;SDS011;55907;50.806;12.882;2024-01-07T11:53:54;2.3;;;2.1;;
68872;SDS011;55907;50.806;12.882;2024-01-07T11:56:54;3.2;;;2.6;;
68872;SDS011;55907;50.806;12.882;2024-01-07T11:59:55;2.6;;;2.4;;
68872;SDS011;55907;50.806;12.882;2024-01-07T12:02:56;2.7;;;2.5;;
68872;SDS011;55907;50.806;12.882;2024-01-07T12:05:57;2.3;;;2.2;;
68872;SDS011;55907;50.806;12.882;2024-01-07T12:08:58;3.8;;;3.2;;
68872;SDS011;55907;50.806;12.882;2024-01-07T12:11:58;3.1;;;2.9;;
68872;SDS011;55907;50.806;12.882;2024-01-07T12:14:59;3.4;;;3.1;;
68872;SDS011;55907;50.806;12.882;2024-01-07T12:18:00;2.6;;;2.4;;
68872;SDS011;55907;50.806;12.882;2024-01-07T12:21:01;2.4;;;2.3;;
68872;SDS011;55907;50.806;12.882;2024-01-07T12:24:02;3.8;;;3.5;;
68872;SDS011;55907;50.806;12.882;2024-01-07T12:27:04;4.3;;;3.0;;
68872;SDS011;55907;50.806;12.882;2024-01-07T12:30:04;2.4;;;2.2;;
68872;SDS011;55907;50.806;12.882;2024-01-07T12:33:04;2.5;;;2.4;;
68872;SDS011;55907;50.806;12.882;2024-01-07T12:39:06;2.2;;;2.1;;
68872;SDS011;55907;50.806;12.882;2024-01-07T12:42:06;1.8;;;1.7;;
68872;SDS011;55907;50.806;12.882;2024-01-07T12:45:08;2.0;;;1.9;;
68872;SDS011;55907;50.806;12.882;2024-01-07T12:51:09;3.7;;;3.4;;
68872;SDS011;55907;50.806;12.882;2024-01-07T12:54:10;2.8;;;2.6;;
68872;SDS011;55907;50.806;12.882;2024-01-07T13:00:12;2.7;;;2.5;;
68872;SDS011;55907;50.806;12.882;2024-01-07T13:03:12;2.3;;;2.2;;
68872;SDS011;55907;50.806;12.882;2024-01-07T13:06:16;2.9;;;2.7;;
68872;SDS011;55907;50.806;12.882;2024-01-07T13:09:14;4.1;;;3.5;;
68872;SDS011;55907;50.806;12.882;2024-01-07T13:12:15;2.4;;;2.3;;
68872;SDS011;55907;50.806;12.882;2024-01-07T13:18:16;2.5;;;2.3;;
68872;SDS011;55907;50.806;12.882;2024-01-07T13:24:18;2.6;;;2.4;;
68872;SDS011;55907;50.806;12.882;2024-01-07T13:27:19;2.1;;;2.0;;
68872;SDS011;55907;50.806;12.882;2024-01-07T13:30:20;2.3;;;2.2;;
68872;SDS011;55907;50.806;12.882;2024-01-07T13:33:20;2.7;;;2.5;;
68872;SDS011;55907;50.806;12.882;2024-01-07T13:36:21;2.9;;;2.3;;
68872;SDS011;55907;50.806;12.882;2024-01-07T13:39:22;2.4;;;2.3;;
68872;SDS011;55907;50.806;12.882;2024-01-07T13:42:23;2.6;;;2.4;;
68872;SDS011;55907;50.806;12.882;2024-01-07T13:45:24;2.8;;;2.6;;
68872;SDS011;55907;50.806;12.882;2024-01-07T13:48:25;3.1;;;2.8;;
68872;SDS011;55907;50.806;12.882;2024-01-07T13:51:25;3.4;;;3.1;;
68872;SDS011;55907;50.806;12.882;2024-01-07T13:54:26;6.3;;;4.5;;
68872;SDS011;55907;50.806;12.882;2024-01-07T13:57:27;3.1;;;2.8;;
68872;SDS011;55907;50.806;12.882;2024-01-07T14:00:28;2.6;;;2.4;;
68872;SDS011;55907;50.806;12.882;2024-01-07T14:03:29;3.2;;;2.9;;
68872;SDS011;55907;50.806;12.882;2024-01-07T14:06:30;2.6;;;2.3;;
68872;SDS011;55907;50.806;12.882;2024-01-07T14:09:30;3.7;;;3.2;;
68872;SDS011;55907;50.806;12.882;2024-01-07T14:12:31;2.5;;;2.3;;
68872;SDS011;55907;50.806;12.882;2024-01-07T14:15:32;2.4;;;2.2;;
68872;SDS011;55907;50.806;12.882;2024-01-07T14:18:33;2.3;;;2.1;;
68872;SDS011;55907;50.806;12.882;2024-01-07T14:24:34;2.6;;;2.4;;
68872;SDS011;55907;50.806;12.882;2024-01-07T14:27:35;3.0;;;2.5;;
68872;SDS011;55907;50.806;12.882;2024-01-07T14:30:36;2.1;;;2.0;;
68872;SDS011;55907;50.806;12.882;2024-01-07T14:36:39;2.3;;;2.1;;
68872;SDS011;55907;50.806;12.882;2024-01-07T14:39:39;2.4;;;2.2;;
68872;SDS011;55907;50.806;12.882;2024-01-07T14:42:39;2.2;;;2.1;;
68872;SDS011;55907;50.806;12.882;2024-01-07T14:45:40;1.9;;;1.8;;
68872;SDS011;55907;50.806;12.882;2024-01-07T14:48:41;2.3;;;2.1;;
68872;SDS011;55907;50.806;12.882;2024-01-07T14:51:42;2.4;;;2.2;;
68872;SDS011;55907;50.806;12.882;2024-01-07T14:54:43;2.6;;;2.4;;
68872;SDS011;55907;50.806;12.882;2024-01-07T14:57:43;1.8;;;1.7;;
68872;SDS011;55907;50.806;12.882;2024-01-07T15:00:44;2.2;;;1.8;;
68872;SDS011;55907;50.806;12.882;2024-01-07T15:03:45;2.5;;;2.3;;
68872;SDS011;55907;50.806;12.882;2024-01-07T15:06:46;5.6;;;3.6;;
68872;SDS011;55907;50.806;12.882;2024-01-07T15:09:47;4.3;;;3.9;;
68872;SDS011;55907;50.806;12.882;2024-01-07T15:12:48;2.1;;;1.9;;
68872;SDS011;55907;50.806;12.882;2024-01-07T15:15:49;3.8;;;3.4;;
68872;SDS011;55907;50.806;12.882;2024-01-07T15:18:49;1.6;;;1.5;;
68872;SDS011;55907;50.806;12.882;2024-01-07T15:21:50;2.6;;;2.5;;
68872;SDS011;55907;50.806;12.882;2024-01-07T15:24:51;2.0;;;1.8;;
68872;SDS011;55907;50.806;12.882;2024-01-07T15:27:52;2.4;;;2.3;;
68872;SDS011;55907;50.806;12.882;2024-01-07T15:30:53;2.1;;;2.0;;
68872;SDS011;55907;50.806;12.882;2024-01-07T15:33:54;1.9;;;1.8;;
68872;SDS011;55907;50.806;12.882;2024-01-07T15:36:54;2.2;;;2.0;;
68872;SDS011;55907;50.806;12.882;2024-01-07T15:39:55;2.7;;;2.5;;
68872;SDS011;55907;50.806;12.882;2024-01-07T15:42:56;2.2;;;2.0;;
68872;SDS011;55907;50.806;12.882;2024-01-07T15:45:57;2.6;;;2.2;;
68872;SDS011;55907;50.806;12.882;2024-01-07T15:48:58;1.6;;;1.5;;
68872;SDS011;55907;50.806;12.882;2024-01-07T15:51:59;2.1;;;2.0;;
68872;SDS011;55907;50.806;12.882;2024-01-07T15:54:59;1.8;;;1.7;;
68872;SDS011;55907;50.806;12.882;2024-01-07T15:58:00;2.1;;;2.0;;
68872;SDS011;55907;50.806;12.882;2024-01-07T16:01:02;2.5;;;2.3;;
68872;SDS011;55907;50.806;12.882;2024-01-07T16:04:02;2.3;;;2.2;;
68872;SDS011;55907;50.806;12.882;2024-01-07T16:07:03;2.7;;;2.5;;
68872;SDS011;55907;50.806;12.882;2024-01-07T16:10:04;2.5;;;2.4;;
68872;SDS011;55907;50.806;12.882;2024-01-07T16:13:04;2.0;;;1.9;;
68872;SDS011;55907;50.806;12.882;2024-01-07T16:16:05;2.3;;;2.2;;
68872;SDS011;55907;50.806;12.882;2024-01-07T16:19:06;2.0;;;1.9;;
68872;SDS011;55907;50.806;12.882;2024-01-07T16:22:07;2.1;;;2.0;;
68872;SDS011;55907;50.806;12.882;2024-01-07T16:25:08;2.0;;;1.9;;
68872;SDS011;55907;50.806;12.882;2024-01-07T16:28:08;2.3;;;2.1;;
68872;SDS011;55907;50.806;12.882;2024-01-07T16:31:09;2.5;;;2.3;;
68872;SDS011;55907;50.806;12.882;2024-01-07T16:34:10;2.3;;;2.2;;
68872;SDS011;55907;50.806;12.882;2024-01-07T16:37:11;2.0;;;1.9;;
68872;SDS011;55907;50.806;12.882;2024-01-07T16:40:14;3.5;;;2.1;;
68872;SDS011;55907;50.806;12.882;2024-01-07T16:43:12;2.1;;;2.0;;
68872;SDS011;55907;50.806;12.882;2024-01-07T16:49:14;1.9;;;1.8;;
68872;SDS011;55907;50.806;12.882;2024-01-07T16:52:15;2.2;;;2.1;;
68872;SDS011;55907;50.806;12.882;2024-01-07T16:55:16;2.5;;;2.4;;
68872;SDS011;55907;50.806;12.882;2024-01-07T16:58:17;2.3;;;2.2;;
68872;SDS011;55907;50.806;12.882;2024-01-07T17:01:20;2.1;;;2.0;;
68872;SDS011;55907;50.806;12.882;2024-01-07T17:04:18;1.7;;;1.6;;
68872;SDS011;55907;50.806;12.882;2024-01-07T17:07:19;2.4;;;2.2;;
68872;SDS011;55907;50.806;12.882;2024-01-07T17:10:20;2.2;;;2.0;;
68872;SDS011;55907;50.806;12.882;2024-01-07T17:13:21;2.1;;;2.0;;
68872;SDS011;55907;50.806;12.882;2024-01-07T17:19:22;2.7;;;2.5;;
68872;SDS011;55907;50.806;12.882;2024-01-07T17:25:24;2.1;;;2.0;;
68872;SDS011;55907;50.806;12.882;2024-01-07T17:31:26;2.4;;;2.3;;
68872;SDS011;55907;50.806;12.882;2024-01-07T17:34:26;2.3;;;2.1;;
68872;SDS011;55907;50.806;12.882;2024-01-07T17:37:27;2.1;;;2.0;;
68872;SDS011;55907;50.806;12.882;2024-01-07T17:40:28;3.0;;;2.6;;
68872;SDS011;55907;50.806;12.882;2024-01-07T17:43:29;1.9;;;1.8;;
68872;SDS011;55907;50.806;12.882;2024-01-07T17:46:30;2.8;;;2.6;;
68872;SDS011;55907;50.806;12.882;2024-01-07T17:52:31;2.3;;;2.2;;
68872;SDS011;55907;50.806;12.882;2024-01-07T17:55:34;2.0;;;1.9;;
68872;SDS011;55907;50.806;12.882;2024-01-07T17:58:33;2.5;;;2.3;;
68872;SDS011;55907;50.806;12.882;2024-01-07T18:01:34;2.7;;;2.5;;
68872;SDS011;55907;50.806;12.882;2024-01-07T18:04:35;2.6;;;2.4;;
68872;SDS011;55907;50.806;12.882;2024-01-07T18:07:35;4.3;;;3.9;;
68872;SDS011;55907;50.806;12.882;2024-01-07T18:10:36;2.7;;;2.6;;
68872;SDS011;55907;50.806;12.882;2024-01-07T18:13:37;2.9;;;2.7;;
68872;SDS011;55907;50.806;12.882;2024-01-07T18:16:38;2.5;;;2.3;;
68872;SDS011;55907;50.806;12.882;2024-01-07T18:19:39;2.2;;;2.1;;
68872;SDS011;55907;50.806;12.882;2024-01-07T18:22:40;2.3;;;2.2;;
68872;SDS011;55907;50.806;12.882;2024-01-07T18:25:40;2.7;;;2.6;;
68872;SDS011;55907;50.806;12.882;2024-01-07T18:28:41;2.9;;;2.6;;
68872;SDS011;55907;50.806;12.882;2024-01-07T18:31:42;3.0;;;2.8;;
68872;SDS011;55907;50.806;12.882;2024-01-07T18:34:43;3.6;;;3.3;;
68872;SDS011;55907;50.806;12.882;2024-01-07T18:37:44;3.7;;;3.4;;
68872;SDS011;55907;50.806;12.882;2024-01-07T18:40:44;3.0;;;2.8;;
68872;SDS011;55907;50.806;12.882;2024-01-07T18:43:45;2.9;;;2.5;;
68872;SDS011;55907;50.806;12.882;2024-01-07T18:46:46;2.6;;;2.5;;
68872;SDS011;55907;50.806;12.882;2024-01-07T18:49:49;3.3;;;3.1;;
68872;SDS011;55907;50.806;12.882;2024-01-07T18:52:48;2.9;;;2.7;;
68872;SDS011;55907;50.806;12.882;2024-01-07T18:55:48;3.3;;;2.8;;
68872;SDS011;55907;50.806;12.882;2024-01-07T18:58:49;2.5;;;2.3;;